Smith Valley, Nevada Weather observations

Data are for 10 minute period ending at time listed.
 Day   Time   Solar   Ave.   Ave.  Ave.  Vector  Max.   Baro.   Total    
  of    of     Rad.   Air    Rel.  Wind   Wind   Wind  Press.  Precip.   
Year   Day            Temp.  Hum.  Speed  Dir.   Gust                    
2026   (PST)  Kw/m2    F      %     mph   deg.    mph    mb.     in.     
-------------------------------------------------------------------------
 245    7:50   0.22   61.0    28   10.9   217    16.7   853.4    0.00 
 245    8:00   0.24   61.5    27   12.9   209    20.1   853.3    0.00 
 245    8:10   0.20   61.3    28   13.5   214    19.4   853.2    0.00 
 245    8:20   0.21   61.4    28   12.2   215    18.8   853.3    0.00 
 245    8:30   0.23   61.4    28   13.7   217    20.6   853.2    0.00 
 245    8:40   0.21   61.4    28   13.7   227    19.2   853.2    0.00 
 245    8:50   0.23   61.7    29   11.7   221    17.8   853.3    0.00 
 245    9:00   0.24   62.1    28   11.5   219    18.8   853.3    0.00 
 245    9:10   0.24   62.7    28   12.7   218    21.3   853.4    0.00 
 245    9:20   0.26   62.9    28   11.2   213    16.4   853.4    0.00 
 245    9:30   0.28   63.3    28   12.4   216    19.3   853.4    0.00 
 245    9:40   0.31   63.5    27   12.2   215    16.0   853.4    0.00 
 245    9:50   0.30   64.1    27   10.7   201    18.0   853.4    0.00 
 245   10:00   0.33   64.1    27   13.5   210    20.0   853.4    0.00 
 245   10:10   0.38   64.3    27   11.9   218    18.5   853.4    0.00 
 245   10:20   0.49   65.4    26   11.9   210    18.4   853.2    0.00 
 245   10:30   0.60   66.5    25   12.2   206    19.1   853.2    0.00 
 245   10:40   0.61   67.1    25    8.9   198    13.2   853.1    0.00 
 245   10:50   0.61   67.9    24   11.7   200    17.9   852.9    0.00 
 245   11:00   0.57   68.1    24   10.6   195    17.3   852.9    0.00 
 245   11:10   0.55   68.2    24    9.6   208    15.4   852.7    0.00 
 245   11:20   0.62   68.6    23   10.2   191    17.5   852.6    0.00 
 245   11:30   0.79   69.8    22   14.7   190    20.1   852.4    0.00 
 245   11:40   0.75   70.7    21   11.0   192    19.0   852.4    0.00 
 245   11:50   0.88   71.4    20   14.0   190    26.7   852.4    0.00 
 245   12:00   0.78   71.8    19   11.6   194    19.6   852.3    0.00 
 245   12:10   0.71   71.7    20   14.6   193    24.5   852.3    0.00 
 245   12:20   0.72   71.4    20   10.6   180    15.6   852.3    0.00 
 245   12:30   0.62   71.9    19   13.8   196    21.8   852.3    0.00 
 245   12:40   0.48   71.5    19   14.7   194    22.5   852.1    0.00 
 245   12:50   0.50   71.5    19   14.7   200    22.0   852.1    0.00 
 245   13:00   0.48   71.6    19   12.0   206    18.4   852.0    0.00 
 245   13:10   0.48   71.4    19   14.6   206    24.9   852.0    0.00 
 245   13:20   0.63   72.1    19   14.1   209    21.8   852.1    0.00 
 245   13:30   0.64   71.9    18   14.2   218    22.5   852.0    0.00 
 245   13:40   0.84   72.1    18   15.1   210    21.6   852.1    0.00 
 245   13:50   1.07   73.8    18   15.1   203    22.5   852.1    0.00 
 245   14:00   1.06   74.9    17   14.7   210    23.1   852.1    0.00 
 245   14:10   0.96   74.7    17   11.9   216    18.8   852.1    0.00 
 245   14:20   0.94   75.0    18   11.2   218    20.6   852.1    0.00 
 245   14:30   0.90   74.7    17   11.7   205    19.5   852.2    0.00 
 245   14:40   0.87   74.9    17   16.1   208    22.4   852.2    0.00 
 245   14:50   0.74   74.2    16   12.3   210    20.0   852.1    0.00 
 245   15:00   0.71   74.0    17   11.1   213    18.9   852.0    0.00 
 245   15:10   0.69   74.0    17   12.4   188    21.0   852.0    0.00 
 245   15:20   0.67   73.8    18   12.5   193    19.8   851.8    0.00 
 245   15:30   0.70   74.5    17   13.2   196    18.8   851.9    0.00 
 245   15:40   0.65   73.8    18   13.2   211    19.9   851.9    0.00 
 245   15:50   0.56   73.7    17   14.7   208    19.2   851.9    0.00 
 245   16:00   0.51   72.9    18   14.4   207    23.0   851.9    0.00 
 245   16:10   0.43   72.4    19   13.6   205    19.2   851.9    0.00 
 245   16:20   0.58   73.0    19    9.6   212    15.6   851.9    0.00 
 245   16:30   0.56   73.3    19   11.3   212    20.3   851.9    0.00 
 245   16:40   0.48   73.3    18    8.1   257    13.8   851.9    0.00 
 245   16:50   0.44   73.1    18    8.5   245    15.5   851.9    0.00 
 245   17:00   0.39   72.2    19   11.0   252    17.8   851.9    0.00 
 245   17:10   0.34   71.2    20   11.4   250    21.3   851.8    0.00 
 245   17:20   0.29   70.5    20   12.0   241    17.1   851.8    0.00 
 245   17:30   0.25   69.6    21   13.7   248    20.3   851.7    0.00 
 245   17:40   0.20   69.1    21   12.4   246    18.9   851.6    0.00 
 245   17:50   0.05   68.1    23   10.4   252    17.2   851.7    0.00 
 245   18:00   0.03   67.1    24   10.2   248    18.0   851.6    0.00 
 245   18:10   0.02   66.6    24   10.6   253    15.6   851.7    0.00 
 245   18:20   0.02   66.2    24   12.0   248    18.8   851.6    0.00 
 245   18:30   0.01   65.8    26   11.5   252    18.1   851.7    0.00 
 245   18:40   0.00   65.4    26   10.9   245    20.4   851.7    0.00 
 245   18:50   0.00   64.9    27    8.9   235    12.5   851.7    0.00 
 245   19:00   0.00   64.0    29    8.9   230    12.6   851.8    0.00 
 245   19:10   0.00   63.6    30    7.9   231    12.6   851.9    0.00 
 245   19:20   0.00   63.1    31    9.7   221    15.3   851.9    0.00 
 245   19:30   0.00   63.0    30   12.0   227    17.4   852.0    0.00 
 245   19:40   0.00   63.3    28   14.0   224    20.3   851.9    0.00 
 245   19:50   0.00   63.0    29   12.3   228    18.0   851.9    0.00 
 245   20:00   0.00   62.6    29   13.4   227    19.1   851.9    0.00 
 245   20:10   0.00   63.2    26   16.5   222    22.7   851.9    0.00 
 245   20:20   0.00   63.0    27   15.7   222    22.5   852.1    0.00 
 245   20:30   0.00   63.1    26   16.3   222    24.5   852.0    0.00 
 245   20:40   0.00   63.0    26   14.3   217    22.0   852.2    0.00 
 245   20:50   0.00   62.8    25   13.0   216    19.2   852.3    0.00 
 245   21:00   0.00   62.9    24   12.7   218    18.9   852.3    0.00 
 245   21:10   0.00   62.9    23   12.8   216    22.1   852.3    0.00 
 245   21:20   0.00   63.4    22   14.8   213    20.3   852.3    0.00 
 245   21:30   0.00   63.5    20   13.1   209    18.3   852.4    0.00 
 245   21:40   0.00   63.3    21   11.5   210    16.9   852.4    0.00 
 245   21:50   0.00   62.9    21   10.2   215    18.5   852.3    0.00 
 245   22:00   0.00   62.9    20   12.2   215    19.1   852.2    0.00 
 245   22:10   0.00   63.2    20   12.8   211    19.1   852.2    0.00 
 245   22:20   0.00   63.0    19   10.3   214    16.2   852.2    0.00 
 245   22:30   0.00   62.5    19    9.6   209    14.9   852.3    0.00 
 245   22:40   0.00   62.7    18   10.4   218    15.7   852.2    0.00 
 245   22:50   0.00   61.7    20    8.4   219    12.7   852.2    0.00 
 245   23:00   0.00   61.2    20    8.8   219    13.6   852.2    0.00 
 245   23:10   0.00   60.7    21    8.0   220    11.3   852.2    0.00 
 245   23:20   0.00   59.8    23    7.8   223    13.0   852.2    0.00 
 245   23:30   0.00   59.5    23    8.2   224    12.5   852.2    0.00 
 245   23:40   0.00   60.4    22    8.6   222    13.8   852.2    0.00 
 245   23:50   0.00   60.3    22    8.2   228    11.8   852.2    0.00 
 246    0:00   0.00   61.0    21   11.5   231    17.5   852.2    0.00 
 246    0:10   0.00   61.4    21   10.9   229    15.3   852.3    0.00 
 246    0:20   0.00   60.9    22   11.6   230    16.5   852.2    0.00 
 246    0:30   0.00   61.1    23   11.7   232    16.6   852.2    0.00 
 246    0:40   0.00   61.0    23   11.5   232    17.5   852.2    0.00 
 246    0:50   0.00   61.3    23   12.6   234    19.3   852.3    0.00 
 246    1:00   0.00   60.9    24   12.3   235    18.0   852.3    0.00 
 246    1:10   0.00   60.6    24   13.1   236    16.6   852.0    0.00 
 246    1:20   0.00   60.3    25   12.0   236    16.5   851.9    0.00 
 246    1:30   0.00   60.3    25   13.1   234    18.3   851.9    0.00 
 246    1:40   0.00   60.5    24   13.8   234    20.9   851.7    0.00 
 246    1:50   0.00   60.3    25   12.8   229    17.7   851.7    0.00 
 246    2:00   0.00   60.2    25   11.9   231    17.5   851.7    0.00 
 246    2:10   0.00   60.2    25    9.1   230    14.1   851.7    0.00 
 246    2:20   0.00   59.5    26    6.9   222    13.5   851.7    0.00 
 246    2:30   0.00   59.5    26    5.1   219    11.3   851.8    0.00 
 246    2:40   0.00   60.3    25    8.9   218    18.0   851.8    0.00 
 246    2:50   0.00   61.1    24   10.6   213    19.3   851.9    0.00 
 246    3:00   0.00   61.3    25    8.3   204    15.5   852.0    0.00 
 246    3:10   0.00   59.0    29    5.6   136    13.5   852.0    0.00 
 246    3:20   0.00   56.9    31    5.4   119    11.0   851.9    0.00 
 246    3:30   0.00   57.6    30    6.2   127    12.8   851.8    0.00 
 246    3:40   0.00   55.1    37    5.1   106    10.6   851.7    0.00 
 246    3:50   0.00   55.2    34    2.7   134     7.5   851.8    0.00 
 246    4:00   0.00   56.0    35    4.8   129     8.8   851.8    0.00 
 246    4:10   0.00   55.1    35    2.4   150     6.8   851.9    0.00 
 246    4:20   0.00   55.7    34    4.7   169     9.3   851.9    0.00 
 246    4:30   0.00   56.6    32    4.3   205     8.9   851.9    0.00 
 246    4:40   0.00   55.9    33    3.9   182     6.4   851.8    0.00 
 246    4:50   0.00   54.3    35    2.7   217     4.1   851.8    0.00 
 246    5:00   0.00   53.1    38    3.1   191     4.7   851.8    0.00 
 246    5:10   0.00   51.2    42    2.5    56     4.8   851.8    0.00 
 246    5:20   0.00   49.8    43    1.5    53     2.9   851.8    0.00 
 246    5:30   0.00   48.7    45    2.4    53     3.8   851.8    0.00 
 246    5:40   0.02   47.4    46    1.5    58     2.6   851.8    0.00 
 246    5:50   0.07   49.9    44    1.7   204     3.9   851.8    0.00 
 246    6:00   0.09   50.2    43    1.1    26     3.2   851.9    0.00 
 246    6:10   0.12   49.9    49    2.9    71     5.7   851.9    0.00 
 246    6:20   0.16   51.5    44    0.7    37     1.8   852.0    0.00 
 246    6:30   0.20   54.8    42    1.8    85     4.4   852.1    0.00 
 246    6:40   0.26   58.9    33    2.1    56     4.6   852.1    0.00 
 246    6:50   0.34   61.3    31    2.2    54     4.3   852.2    0.00 
 246    7:00   0.40   62.9    28    2.1    77     4.6   852.1    0.00 
 246    7:10   0.46   64.3    28    2.2   102     7.7   852.0    0.00 
 246    7:20   0.50   65.4    28    3.0   118     7.5   851.8    0.00 
 246    7:30   0.34   65.6    27    3.4   244     9.0   851.7    0.00 
 246    7:40   0.31   65.1    29    2.7   121     6.0   851.7    0.00 

Return to Smith Valley graphs page.


Western Regional Climate Center,wrcc@dri.edu